Terminal Aerodrome Forecast
Issued by NWS Chicago, IL

Home | Current Version | Previous Version | Text Only | Print | Product List | Glossary On
Versions: 1 2 3 4 5 6 7 8 9 10 11 12 13 14 15 16 17 18 19 20 21 22 23 24 25 26 27 28 29 30 31 32
000
FTUS43 KLOT 311128
TAFRFD
TAF
KRFD 311128Z 3112/0112 00000KT 2SM BR SCT002
      TEMPO 3112/3114 1SM BR VV002
     FM311500 20003KT P6SM SKC
     FM311800 19005KT P6SM FEW050
     FM010300 19004KT 5SM BR FEW050=

USA.gov is the U.S. government's official web portal to all federal, state and local government web resources and services.